createdAt,value
2022-09-29T09:50:04.621Z,69.61
2022-09-29T09:51:04.558Z,68.80
2022-09-29T09:52:04.567Z,58.33
2022-09-29T09:53:04.444Z,67.68
2022-09-29T09:54:04.473Z,67.35
2022-09-29T09:55:04.476Z,68.96
2022-09-29T09:56:04.389Z,67.84
2022-09-29T09:57:04.477Z,67.51
2022-09-29T09:58:04.428Z,64.45
2022-09-29T09:59:04.354Z,69.61
2022-09-29T10:00:04.403Z,65.74
2022-09-29T10:01:04.436Z,68.64
2022-09-29T10:02:04.434Z,70.42
2022-09-29T10:03:04.332Z,65.42
2022-09-29T10:04:04.351Z,67.19
2022-09-29T10:05:09.409Z,68.96
2022-09-29T10:06:06.289Z,66.87
2022-09-29T10:07:04.471Z,66.06
2022-09-29T10:08:04.262Z,65.74
2022-09-29T10:09:05.481Z,69.13
2022-09-29T10:10:04.287Z,65.26
2022-09-29T10:11:04.579Z,63.33
2022-09-29T10:12:04.274Z,65.42
2022-09-29T10:13:04.265Z,67.35
2022-09-29T10:14:04.206Z,65.10
2022-09-29T10:15:04.213Z,70.09
2022-09-29T10:16:04.210Z,68.32
2022-09-29T10:17:04.219Z,67.84
2022-09-29T10:18:04.135Z,67.68
2022-09-29T10:19:04.162Z,67.03
2022-09-29T10:20:04.104Z,65.10
2022-09-29T10:21:04.160Z,68.32
2022-09-29T10:22:04.114Z,67.68
2022-09-29T10:23:04.159Z,70.58
2022-09-29T10:24:04.148Z,68.16
2022-09-29T10:25:04.182Z,66.06
2022-09-29T10:26:04.074Z,66.55
2022-09-29T10:27:04.124Z,68.48
2022-09-29T10:28:04.031Z,70.09
2022-09-29T10:29:04.138Z,67.19
2022-09-29T10:30:04.019Z,68.48
2022-09-29T10:31:04.400Z,71.06
2022-09-29T10:32:39.014Z,69.45
2022-09-29T10:33:04.397Z,69.93
2022-09-29T10:34:03.956Z,69.45
2022-09-29T10:35:03.952Z,67.68
2022-09-29T10:36:03.947Z,67.03
2022-09-29T10:37:04.938Z,71.70
2022-09-29T10:38:03.969Z,68.80
2022-09-29T10:39:03.942Z,65.10
2022-09-29T10:40:03.946Z,69.45
2022-09-29T10:41:03.933Z,67.84
2022-09-29T10:42:03.918Z,68.80
2022-09-29T10:44:03.896Z,70.58
2022-09-29T10:45:03.858Z,69.93
2022-09-29T10:46:03.893Z,69.13
2022-09-29T10:47:03.889Z,67.19
2022-09-29T10:48:03.876Z,69.61
2022-09-29T10:49:03.872Z,71.06
2022-09-29T10:50:03.824Z,66.87
2022-09-29T10:51:03.815Z,66.06
2022-09-29T10:52:03.792Z,63.81
2022-09-29T10:53:03.820Z,67.51
2022-09-29T10:54:03.745Z,67.35
2022-09-29T10:55:03.765Z,64.45
2022-09-29T10:56:03.739Z,71.22
2022-09-29T10:57:03.724Z,63.49
2022-09-29T10:58:03.725Z,69.93
2022-09-29T10:59:05.894Z,69.93
2022-09-29T11:00:04.718Z,68.32
2022-09-29T11:01:03.719Z,69.13
2022-09-29T11:02:04.411Z,68.80
2022-09-29T11:03:03.653Z,67.51
2022-09-29T11:04:03.668Z,68.16
2022-09-29T11:05:03.628Z,66.39
2022-09-29T11:06:04.639Z,71.38
2022-09-29T11:07:03.617Z,70.58
2022-09-29T11:08:03.593Z,71.87
2022-09-29T11:09:03.673Z,70.42
2022-09-29T11:10:03.618Z,71.22
2022-09-29T11:11:03.585Z,69.29
2022-09-29T11:12:08.656Z,69.77
2022-09-29T11:13:04.554Z,72.19
2022-09-29T11:14:03.593Z,70.25
2022-09-29T11:15:03.841Z,68.96
2022-09-29T11:16:03.533Z,69.29
2022-09-29T11:17:03.497Z,69.13
2022-09-29T11:18:03.548Z,70.42
2022-09-29T11:19:03.522Z,71.06
2022-09-29T11:20:04.184Z,70.09
2022-09-29T11:21:03.481Z,71.06
2022-09-29T11:22:03.462Z,68.96
2022-09-29T11:23:03.418Z,68.16
2022-09-29T11:24:03.418Z,70.90
2022-09-29T11:25:03.402Z,69.29
2022-09-29T11:26:03.394Z,71.38
2022-09-29T11:27:03.378Z,69.61
2022-09-29T11:28:03.398Z,72.35
2022-09-29T11:29:03.358Z,70.42
2022-09-29T11:30:03.366Z,66.71
2022-09-29T11:31:03.418Z,68.48
2022-09-29T11:32:03.398Z,71.38
2022-09-29T11:33:03.333Z,69.61
2022-09-29T11:34:03.318Z,69.61
2022-09-29T11:35:03.342Z,69.77
2022-09-29T11:36:03.354Z,69.13
2022-09-29T11:37:03.366Z,68.00
2022-09-29T11:38:03.254Z,68.64
2022-09-29T11:39:03.262Z,70.74
2022-09-29T11:40:03.230Z,67.84
2022-09-29T11:41:03.250Z,69.29
2022-09-29T11:42:03.241Z,66.55
2022-09-29T11:43:03.246Z,67.19
2022-09-29T11:44:03.231Z,66.55
2022-09-29T11:45:03.159Z,69.93
2022-09-29T11:46:03.219Z,73.64
2022-09-29T11:47:03.210Z,69.77
2022-09-29T11:48:03.163Z,65.10
2022-09-29T11:49:03.156Z,67.51
2022-09-29T11:50:04.027Z,64.13
2022-09-29T11:51:03.161Z,68.32
2022-09-29T11:52:03.122Z,72.51
2022-09-29T11:53:03.188Z,69.77
2022-09-29T11:54:05.368Z,67.35
2022-09-29T11:55:03.055Z,68.96
2022-09-29T11:56:03.068Z,72.19
2022-09-29T11:57:03.123Z,68.00
2022-09-29T11:58:03.142Z,68.64
2022-09-29T11:59:03.017Z,66.71
2022-09-29T12:00:03.023Z,73.32
2022-09-29T12:01:04.020Z,69.77
2022-09-29T12:02:03.015Z,70.09
2022-09-29T12:03:03.323Z,68.16
2022-09-29T12:04:05.628Z,71.06
2022-09-29T12:05:02.974Z,70.09
2022-09-29T12:06:02.968Z,69.93
2022-09-29T12:07:07.186Z,70.74
2022-09-29T12:08:02.921Z,68.96
2022-09-29T12:09:03.012Z,71.06
2022-09-29T12:10:02.924Z,70.90
2022-09-29T12:11:17.905Z,67.51
2022-09-29T12:12:22.569Z,70.74
2022-09-29T12:13:04.892Z,69.61
2022-09-29T12:14:02.864Z,69.45
2022-09-29T12:15:02.857Z,69.13
2022-09-29T12:16:02.824Z,70.58
2022-09-29T12:17:03.930Z,73.48
2022-09-29T12:18:02.837Z,69.93
2022-09-29T12:19:02.786Z,63.97
2022-09-29T12:20:02.835Z,71.38
2022-09-29T12:21:02.848Z,72.51
2022-09-29T12:22:02.813Z,72.67
2022-09-29T12:23:02.797Z,68.80
2022-09-29T12:24:02.754Z,67.35
2022-09-29T12:25:02.744Z,71.87
2022-09-29T12:26:02.777Z,70.25
2022-09-29T12:27:03.466Z,72.03
2022-09-29T12:28:02.706Z,70.58
2022-09-29T12:29:02.709Z,65.26
2022-09-29T12:30:02.698Z,67.51
2022-09-29T12:31:02.752Z,66.71
2022-09-29T12:32:02.670Z,73.80
2022-09-29T12:33:02.664Z,71.06
2022-09-29T12:34:02.669Z,69.61
2022-09-29T12:35:02.597Z,74.60
2022-09-29T12:36:02.633Z,72.19
2022-09-29T12:37:02.705Z,71.54
2022-09-29T12:38:02.601Z,73.64
2022-09-29T12:39:04.673Z,76.05
2022-09-29T12:40:03.703Z,72.67
2022-09-29T12:41:02.575Z,72.19
2022-09-29T12:42:02.549Z,68.64
2022-09-29T12:43:02.537Z,71.87
2022-09-29T12:44:02.525Z,71.87
2022-09-29T12:45:02.540Z,70.25
2022-09-29T12:46:02.524Z,65.58
2022-09-29T12:47:02.507Z,71.06
2022-09-29T12:48:02.571Z,69.45
2022-09-29T12:49:02.462Z,68.80
2022-09-29T12:50:02.460Z,70.90
2022-09-29T12:51:02.454Z,70.90
2022-09-29T12:52:02.462Z,72.51
2022-09-29T12:53:06.945Z,72.19
2022-09-29T12:54:03.531Z,70.74
2022-09-29T12:55:02.414Z,72.19
2022-09-29T12:56:02.379Z,67.03
2022-09-29T12:57:02.362Z,68.96
2022-09-29T12:58:02.363Z,71.06
2022-09-29T12:59:02.355Z,71.06
2022-09-29T13:00:02.506Z,71.38
2022-09-29T13:01:02.417Z,69.29
2022-09-29T13:02:02.323Z,69.61
2022-09-29T13:03:02.290Z,67.35
2022-09-29T13:04:02.367Z,68.64
2022-09-29T13:05:02.296Z,68.64
2022-09-29T13:06:02.307Z,64.45
2022-09-29T13:07:02.263Z,65.90
2022-09-29T13:08:02.231Z,67.68
2022-09-29T13:09:02.303Z,68.32
2022-09-29T13:10:02.399Z,71.54
2022-09-29T13:11:02.218Z,68.80
2022-09-29T13:12:02.212Z,69.77
2022-09-29T13:13:02.219Z,68.16
2022-09-29T13:14:02.255Z,68.48
2022-09-29T13:15:02.200Z,69.29
2022-09-29T13:16:02.280Z,69.93
2022-09-29T13:17:02.172Z,69.45
2022-09-29T13:18:02.151Z,72.19
2022-09-29T13:19:14.580Z,70.09
2022-09-29T13:20:04.613Z,68.80
2022-09-29T13:21:02.133Z,70.25
2022-09-29T13:22:02.116Z,68.64
2022-09-29T13:23:02.124Z,70.90
2022-09-29T13:24:02.080Z,70.58
2022-09-29T13:25:02.132Z,69.13
2022-09-29T13:26:02.109Z,71.22
2022-09-29T13:27:02.081Z,71.22
2022-09-29T13:28:02.352Z,69.93
2022-09-29T13:29:02.055Z,70.42
2022-09-29T13:30:02.039Z,71.22
2022-09-29T13:31:02.066Z,71.22
2022-09-29T13:32:02.027Z,71.54
2022-09-29T13:33:02.020Z,71.06
2022-09-29T13:34:02.636Z,70.74
2022-09-29T13:35:02.068Z,68.96
2022-09-29T13:36:02.120Z,72.51
2022-09-29T13:37:02.009Z,70.74
2022-09-29T13:38:02.100Z,70.42
2022-09-29T13:39:01.994Z,71.70
2022-09-29T13:40:28.774Z,70.25
2022-09-29T13:41:02.025Z,72.19
2022-09-29T13:42:34.298Z,73.80
2022-09-29T13:43:01.900Z,75.09
2022-09-29T13:44:02.095Z,73.32
2022-09-29T13:45:01.912Z,71.38
2022-09-29T13:46:02.030Z,70.09
2022-09-29T13:47:01.824Z,70.25
2022-09-29T13:48:01.962Z,72.03
2022-09-29T13:49:01.903Z,70.74
2022-09-29T13:50:01.845Z,70.90
2022-09-29T13:51:05.261Z,69.93
2022-09-29T13:52:01.837Z,68.32
2022-09-29T13:53:01.778Z,69.13
2022-09-29T13:54:01.829Z,71.54
2022-09-29T13:55:01.801Z,67.19
2022-09-29T13:56:01.814Z,70.90
2022-09-29T13:57:01.906Z,70.74
2022-09-29T13:58:01.897Z,69.61
2022-09-29T13:59:01.884Z,70.25
2022-09-29T14:00:01.731Z,69.61
2022-09-29T14:01:01.774Z,71.70
2022-09-29T14:02:01.746Z,69.45
2022-09-29T14:03:01.714Z,72.67
2022-09-29T14:04:01.709Z,72.19
2022-09-29T14:05:01.778Z,72.35
2022-09-29T14:06:08.750Z,68.96
2022-09-29T14:07:03.674Z,71.22
2022-09-29T14:09:01.704Z,68.16
2022-09-29T14:10:01.607Z,70.25
2022-09-29T14:11:01.618Z,69.13
2022-09-29T14:12:02.418Z,70.74
2022-09-29T14:13:01.638Z,70.25
2022-09-29T14:14:01.586Z,69.45
2022-09-29T14:15:01.573Z,69.13
2022-09-29T14:16:01.708Z,69.61
2022-09-29T14:17:01.640Z,68.48
2022-09-29T14:18:01.540Z,69.77
2022-09-29T14:19:02.020Z,70.74
2022-09-29T14:20:01.499Z,71.38
2022-09-29T14:21:01.550Z,71.06
2022-09-29T14:22:01.552Z,70.74
2022-09-29T14:23:01.450Z,72.19
2022-09-29T14:24:01.478Z,73.15
2022-09-29T14:25:01.469Z,72.99
2022-09-29T14:26:01.462Z,70.74
2022-09-29T14:27:01.426Z,70.74
2022-09-29T14:28:01.460Z,68.16
2022-09-29T14:29:01.452Z,70.58
2022-09-29T14:30:01.483Z,69.45
2022-09-29T14:31:01.612Z,70.09
2022-09-29T14:32:01.411Z,68.64
2022-09-29T14:33:01.935Z,68.64
2022-09-29T14:34:01.355Z,67.19
2022-09-29T14:35:01.327Z,69.29
2022-09-29T14:36:01.383Z,70.42
2022-09-29T14:37:01.363Z,71.22
2022-09-29T14:38:01.467Z,70.90
2022-09-29T14:39:25.679Z,68.64
2022-09-29T14:40:03.516Z,70.42
2022-09-29T14:41:01.324Z,71.54
2022-09-29T14:42:01.617Z,71.22
2022-09-29T14:43:01.267Z,70.42
2022-09-29T14:44:01.274Z,71.22
2022-09-29T14:45:01.247Z,72.19
2022-09-29T14:46:01.288Z,72.03
2022-09-29T14:47:01.305Z,71.22
2022-09-29T14:48:01.400Z,69.45
2022-09-29T14:49:01.260Z,70.74
2022-09-29T14:50:01.168Z,70.58
2022-09-29T14:51:01.199Z,69.45
2022-09-29T14:52:01.233Z,69.93
2022-09-29T14:53:01.164Z,69.45
2022-09-29T14:54:01.120Z,71.22
2022-09-29T14:55:01.146Z,68.96
2022-09-29T14:56:01.208Z,70.42
2022-09-29T14:57:01.169Z,69.13
2022-09-29T14:58:01.129Z,72.51
2022-09-29T14:59:01.138Z,69.29
2022-09-29T15:00:01.175Z,70.58
2022-09-29T15:01:01.113Z,68.80
2022-09-29T15:02:01.088Z,68.32
2022-09-29T15:03:23.482Z,67.35
2022-09-29T15:04:03.093Z,70.58
2022-09-29T15:05:01.077Z,68.16
2022-09-29T15:06:01.496Z,69.61
2022-09-29T15:07:01.010Z,69.29
2022-09-29T15:08:00.994Z,69.13
2022-09-29T15:09:00.981Z,66.55
2022-09-29T15:10:00.972Z,70.90
2022-09-29T15:11:01.983Z,70.42
2022-09-29T15:12:01.029Z,71.22
2022-09-29T15:13:01.058Z,71.87
2022-09-29T15:14:00.972Z,71.22
2022-09-29T15:15:00.929Z,69.61
2022-09-29T15:16:00.973Z,73.15
2022-09-29T15:17:01.039Z,71.54
2022-09-29T15:18:02.146Z,70.09
2022-09-29T15:19:01.017Z,72.03
2022-09-29T15:20:00.922Z,71.06
2022-09-29T15:21:00.925Z,71.06
2022-09-29T15:22:01.886Z,72.51
2022-09-29T15:23:00.937Z,72.03
2022-09-29T15:24:00.800Z,73.32
2022-09-29T15:25:00.814Z,70.25
2022-09-29T15:26:01.249Z,69.29
2022-09-29T15:27:00.770Z,70.90
2022-09-29T15:28:00.809Z,70.25
2022-09-29T15:29:00.865Z,71.38
2022-09-29T15:30:00.766Z,70.42
2022-09-29T15:31:02.907Z,69.13
2022-09-29T15:32:00.732Z,71.70
2022-09-29T15:33:00.767Z,68.00
2022-09-29T15:34:00.726Z,69.61
2022-09-29T15:35:00.778Z,71.38
2022-09-29T15:36:00.768Z,68.96
2022-09-29T15:37:00.747Z,72.03
2022-09-29T15:38:00.782Z,72.51
2022-09-29T15:39:00.730Z,71.70
2022-09-29T15:40:00.804Z,67.19
2022-09-29T15:41:00.614Z,66.06
2022-09-29T15:42:00.644Z,71.22
2022-09-29T15:43:01.419Z,70.58
2022-09-29T15:44:00.626Z,71.06
2022-09-29T15:45:00.614Z,69.13
2022-09-29T15:46:00.635Z,70.09
2022-09-29T15:47:00.579Z,72.51
2022-09-29T15:48:00.566Z,70.25
2022-09-29T15:49:00.608Z,68.16
2022-09-29T15:50:00.640Z,70.58
2022-09-29T15:51:00.518Z,68.64
2022-09-29T15:52:00.550Z,70.90
2022-09-29T15:53:00.643Z,70.74
2022-09-29T15:54:00.539Z,68.64
2022-09-29T15:55:00.550Z,69.61
2022-09-29T15:56:00.468Z,69.93
2022-09-29T15:57:00.478Z,68.00
2022-09-29T15:58:00.540Z,70.09
2022-09-29T15:59:01.314Z,71.70
2022-09-29T16:00:00.520Z,71.54
2022-09-29T16:01:00.991Z,72.99
2022-09-29T16:02:01.652Z,69.13
2022-09-29T16:03:01.453Z,70.25
2022-09-29T16:04:00.399Z,72.03
2022-09-29T16:05:00.366Z,71.06
2022-09-29T16:06:00.419Z,72.19
2022-09-29T16:07:00.363Z,72.19
2022-09-29T16:08:00.327Z,73.48
2022-09-29T16:09:00.446Z,72.51
2022-09-29T16:10:00.336Z,72.51
2022-09-29T16:11:00.423Z,71.06
2022-09-29T16:12:00.272Z,70.74
2022-09-29T16:13:00.248Z,70.90
2022-09-29T16:14:00.344Z,70.42
2022-09-29T16:15:00.235Z,72.51
2022-09-29T16:16:01.261Z,72.83
2022-09-29T16:17:00.270Z,71.54
2022-09-29T16:18:00.235Z,71.70
2022-09-29T16:19:00.226Z,70.74
2022-09-29T16:20:00.200Z,73.64
2022-09-29T16:21:00.350Z,69.77
2022-09-29T16:22:00.185Z,71.22
2022-09-29T16:23:00.198Z,72.35
2022-09-29T16:24:00.171Z,67.68
2022-09-29T16:25:00.236Z,70.09
2022-09-29T16:26:00.122Z,69.13
2022-09-29T16:27:00.104Z,70.09
2022-09-29T16:28:00.133Z,69.29
2022-09-29T16:29:00.116Z,69.45
2022-09-29T16:30:00.130Z,68.64
2022-09-29T16:31:00.199Z,68.16
2022-09-29T16:32:00.121Z,71.70
2022-09-29T16:33:00.049Z,65.42
2022-09-29T16:34:00.119Z,70.58
2022-09-29T16:35:00.045Z,71.22
2022-09-29T16:36:00.140Z,72.35
2022-09-29T16:37:00.024Z,70.09
2022-09-29T16:38:00.045Z,69.45
2022-09-29T16:39:00.014Z,70.09
2022-09-29T16:40:00.064Z,70.90
2022-09-29T16:41:00.097Z,66.71
2022-09-29T16:42:00.323Z,67.03
2022-09-29T16:43:00.111Z,69.13
2022-09-29T16:44:00.441Z,66.23
2022-09-29T16:45:00.001Z,65.58
2022-09-29T16:46:00.007Z,65.42
2022-09-29T16:46:59.962Z,69.61
2022-09-29T16:47:59.873Z,67.35
2022-09-29T16:48:59.914Z,68.80
2022-09-29T16:49:59.899Z,68.16
2022-09-29T16:50:59.893Z,67.19
2022-09-29T16:51:59.882Z,68.48
2022-09-29T16:52:59.843Z,67.19
2022-09-29T16:53:59.822Z,61.23
2022-09-29T16:54:59.885Z,68.00
2022-09-29T16:55:59.826Z,70.25
2022-09-29T16:56:59.767Z,69.45
2022-09-29T16:57:59.786Z,67.51
2022-09-29T16:58:59.758Z,70.90
2022-09-29T16:59:59.724Z,68.64
2022-09-29T17:00:59.739Z,66.87
2022-09-29T17:02:05.296Z,69.45
2022-09-29T17:03:02.356Z,65.42
2022-09-29T17:03:59.706Z,64.29
2022-09-29T17:04:59.722Z,65.26
2022-09-29T17:05:59.687Z,67.51
2022-09-29T17:06:59.652Z,62.20
2022-09-29T17:07:59.723Z,65.42
2022-09-29T17:08:59.666Z,66.23
2022-09-29T17:09:59.662Z,66.71
2022-09-29T17:10:59.640Z,69.61
2022-09-29T17:11:59.620Z,67.35
2022-09-29T17:12:59.659Z,69.45
2022-09-29T17:13:59.627Z,70.74
2022-09-29T17:14:59.576Z,68.80
2022-09-29T17:15:59.667Z,66.55
2022-09-29T17:16:59.586Z,66.55
2022-09-29T17:17:59.550Z,68.96
2022-09-29T17:18:59.611Z,70.25
2022-09-29T17:19:59.491Z,66.87
2022-09-29T17:20:59.485Z,70.90
2022-09-29T17:21:59.519Z,71.06
2022-09-29T17:22:59.499Z,68.32
2022-09-29T17:23:59.466Z,68.48
2022-09-29T17:25:00.036Z,68.64
2022-09-29T17:25:59.500Z,68.32
2022-09-29T17:27:00.911Z,69.29
2022-09-29T17:27:59.475Z,68.32
2022-09-29T17:28:59.473Z,68.64
2022-09-29T17:29:59.493Z,69.13
2022-09-29T17:30:59.479Z,68.16
2022-09-29T17:31:59.811Z,65.58
2022-09-29T17:32:59.537Z,69.61
2022-09-29T17:33:59.408Z,66.87
2022-09-29T17:34:59.401Z,69.61
2022-09-29T17:35:59.340Z,70.09
2022-09-29T17:36:59.336Z,68.96
2022-09-29T17:37:59.353Z,71.06
2022-09-29T17:38:59.324Z,67.51
2022-09-29T17:39:59.280Z,63.97
2022-09-29T17:40:59.268Z,68.32
2022-09-29T17:41:59.288Z,70.09
2022-09-29T17:42:59.241Z,68.96
2022-09-29T17:43:59.261Z,69.93
2022-09-29T17:44:59.252Z,69.13
2022-09-29T17:45:59.269Z,68.96
2022-09-29T17:47:11.115Z,67.35
2022-09-29T17:48:01.184Z,69.45
2022-09-29T17:48:59.213Z,65.74
2022-09-29T17:49:59.190Z,70.09
2022-09-29T17:50:59.594Z,67.19
2022-09-29T17:51:59.165Z,63.97
2022-09-29T17:52:59.143Z,69.13
2022-09-29T17:53:59.981Z,65.90
2022-09-29T17:54:59.140Z,68.16
2022-09-29T17:55:59.093Z,68.64
2022-09-29T17:57:02.416Z,68.64
2022-09-29T17:58:00.127Z,67.03
2022-09-29T17:58:59.089Z,67.35
2022-09-29T17:59:59.086Z,64.78
2022-09-29T18:00:59.030Z,64.61
2022-09-29T18:02:00.170Z,68.16
2022-09-29T18:02:59.117Z,66.06
2022-09-29T18:03:59.059Z,67.03
2022-09-29T18:04:59.043Z,68.16
2022-09-29T18:05:59.001Z,67.51
2022-09-29T18:06:59.030Z,70.58
2022-09-29T18:07:59.005Z,67.35
2022-09-29T18:08:59.006Z,67.84
2022-09-29T18:09:59.005Z,69.13
2022-09-29T18:10:58.965Z,66.71
2022-09-29T18:11:58.945Z,68.80
2022-09-29T18:12:58.929Z,67.35
2022-09-29T18:13:58.946Z,68.16
2022-09-29T18:14:58.937Z,66.87
2022-09-29T18:15:58.947Z,68.96
2022-09-29T18:16:58.943Z,65.58
2022-09-29T18:17:58.874Z,64.45
2022-09-29T18:18:59.200Z,69.13
2022-09-29T18:19:59.866Z,66.06
2022-09-29T18:20:58.871Z,68.00
2022-09-29T18:21:58.818Z,67.84
2022-09-29T18:22:58.830Z,67.68
2022-09-29T18:23:58.832Z,65.90
2022-09-29T18:24:58.811Z,66.87
2022-09-29T18:25:58.815Z,67.19
2022-09-29T18:26:58.808Z,64.61
2022-09-29T18:27:58.791Z,67.35
2022-09-29T18:28:58.751Z,64.29
2022-09-29T18:29:58.875Z,68.80
2022-09-29T18:30:58.768Z,68.48
2022-09-29T18:31:59.384Z,67.68
2022-09-29T18:32:58.724Z,61.55
2022-09-29T18:33:58.998Z,63.81
2022-09-29T18:34:58.776Z,63.65
2022-09-29T18:35:58.677Z,64.45
2022-09-29T18:36:58.700Z,60.42
2022-09-29T18:37:58.659Z,60.42
2022-09-29T18:38:58.691Z,63.65
2022-09-29T18:39:58.674Z,66.06
2022-09-29T18:40:58.630Z,65.42
2022-09-29T18:41:58.607Z,65.74
2022-09-29T18:42:58.612Z,66.39
2022-09-29T18:43:59.591Z,64.45
2022-09-29T18:44:58.572Z,68.00
2022-09-29T18:45:58.620Z,64.29
2022-09-29T18:46:58.686Z,66.55
2022-09-29T18:47:58.544Z,67.19
2022-09-29T18:48:58.520Z,66.06
2022-09-29T18:49:58.545Z,67.03
2022-09-29T18:50:59.519Z,62.36
2022-09-29T18:51:58.569Z,64.78
2022-09-29T18:52:58.496Z,66.06
2022-09-29T18:53:58.527Z,65.42
2022-09-29T18:54:58.476Z,66.39
2022-09-29T18:55:58.635Z,66.71
2022-09-29T18:56:58.437Z,66.39
2022-09-29T18:57:58.592Z,66.06
2022-09-29T18:58:58.413Z,62.84
2022-09-29T18:59:58.444Z,59.94
2022-09-29T19:00:58.437Z,61.39
2022-09-29T19:01:58.777Z,58.33
2022-09-29T19:02:58.536Z,58.65
2022-09-29T19:03:58.367Z,64.45
2022-09-29T19:04:58.384Z,64.13
2022-09-29T19:05:58.882Z,62.84
2022-09-29T19:06:58.336Z,60.10
2022-09-29T19:09:32.050Z,66.06
2022-09-29T19:09:58.357Z,69.77
2022-09-29T19:10:58.518Z,65.58
2022-09-29T19:11:58.334Z,66.39
2022-09-29T19:12:58.329Z,65.58
2022-09-29T19:13:58.327Z,65.10
2022-09-29T19:14:58.329Z,68.64
2022-09-29T19:15:58.335Z,67.51
2022-09-29T19:16:58.306Z,66.55
2022-09-29T19:17:58.288Z,66.06
2022-09-29T19:18:58.281Z,63.65
2022-09-29T19:19:58.293Z,60.75
2022-09-29T19:20:58.211Z,67.03
2022-09-29T19:21:58.202Z,66.87
2022-09-29T19:22:58.222Z,52.69
2022-09-29T19:23:58.285Z,64.29
2022-09-29T19:24:58.153Z,63.81
2022-09-29T19:25:58.198Z,64.45
2022-09-29T19:26:58.132Z,63.33
2022-09-29T19:27:58.210Z,66.55
2022-09-29T19:28:59.046Z,67.84
2022-09-29T19:30:02.313Z,64.45
2022-09-29T19:31:00.257Z,68.16
2022-09-29T19:31:58.101Z,67.35
2022-09-29T19:32:58.078Z,66.87
2022-09-29T19:33:58.110Z,63.81
2022-09-29T19:34:58.073Z,67.03
2022-09-29T19:35:58.081Z,69.13
2022-09-29T19:36:58.025Z,57.69
2022-09-29T19:37:58.037Z,64.45
2022-09-29T19:38:58.007Z,59.30
2022-09-29T19:39:58.850Z,64.61
2022-09-29T19:40:57.994Z,64.45
2022-09-29T19:41:58.011Z,66.23
2022-09-29T19:42:58.035Z,63.97
2022-09-29T19:43:57.966Z,66.55
2022-09-29T19:44:57.958Z,64.13
2022-09-29T19:45:58.028Z,63.81
2022-09-29T19:46:57.949Z,64.78
2022-09-29T19:47:57.926Z,65.58
2022-09-29T19:48:57.923Z,63.16
2022-09-29T19:49:58.550Z,64.45
2022-09-29T19:50:57.890Z,61.71
2022-09-29T19:51:57.924Z,64.61
2022-09-29T19:52:57.902Z,64.45
2022-09-29T19:53:57.863Z,59.78
2022-09-29T19:54:57.891Z,63.49
2022-09-29T19:55:57.895Z,64.61
2022-09-29T19:56:57.867Z,64.29
2022-09-29T19:57:57.858Z,66.71
2022-09-29T19:58:57.827Z,63.33
2022-09-29T19:59:57.835Z,64.29
2022-09-29T20:00:57.767Z,65.10
2022-09-29T20:01:57.870Z,65.42
2022-09-29T20:02:57.809Z,61.87
2022-09-29T20:03:57.748Z,65.26
2022-09-29T20:04:57.876Z,66.55
2022-09-29T20:05:57.719Z,59.46
2022-09-29T20:06:57.767Z,57.20
2022-09-29T20:07:57.743Z,65.58
2022-09-29T20:08:57.719Z,64.45
2022-09-29T20:09:57.702Z,65.90
2022-09-29T20:10:57.667Z,64.94
2022-09-29T20:11:57.891Z,64.61
2022-09-29T20:12:57.691Z,68.32
2022-09-29T20:13:57.647Z,66.39
2022-09-29T20:14:58.421Z,69.45
2022-09-29T20:15:57.665Z,56.88
2022-09-29T20:16:57.642Z,66.06
2022-09-29T20:17:57.635Z,56.40
2022-09-29T20:18:57.608Z,64.29
2022-09-29T20:19:57.571Z,67.68
2022-09-29T20:20:57.565Z,68.16
2022-09-29T20:21:57.589Z,62.84
2022-09-29T20:22:57.537Z,63.16
2022-09-29T20:23:57.568Z,67.68
2022-09-29T20:24:57.523Z,66.55
2022-09-29T20:25:57.509Z,66.39
2022-09-29T20:26:57.598Z,63.81
2022-09-29T20:27:57.488Z,63.33
2022-09-29T20:28:57.479Z,66.87
2022-09-29T20:29:57.511Z,68.96
2022-09-29T20:30:57.501Z,68.00
2022-09-29T20:31:57.467Z,66.23
2022-09-29T20:32:57.464Z,70.25
2022-09-29T20:33:57.428Z,63.33
2022-09-29T20:34:57.420Z,67.19
2022-09-29T20:35:57.550Z,63.16
2022-09-29T20:36:57.376Z,67.35
2022-09-29T20:37:57.391Z,69.77
2022-09-29T20:38:57.377Z,69.13
2022-09-29T20:39:57.380Z,68.64
2022-09-29T20:40:57.361Z,69.61
2022-09-29T20:41:57.342Z,70.09
2022-09-29T20:42:57.365Z,69.61
2022-09-29T20:43:57.333Z,69.13
2022-09-29T20:44:57.334Z,68.64
2022-09-29T20:45:57.330Z,69.45
2022-09-29T20:46:58.175Z,68.16
2022-09-29T20:47:57.280Z,70.09
2022-09-29T20:48:57.280Z,67.68
2022-09-29T20:49:57.263Z,67.03
2022-09-29T20:50:57.265Z,67.19
2022-09-29T20:51:57.274Z,66.87
2022-09-29T20:52:57.233Z,68.00
2022-09-29T20:53:57.221Z,67.03
2022-09-29T20:54:57.183Z,67.84
2022-09-29T20:55:57.169Z,64.94
2022-09-29T20:56:57.182Z,67.68
2022-09-29T20:57:57.162Z,64.45
2022-09-29T20:58:57.149Z,63.16
2022-09-29T20:59:57.165Z,64.94
2022-09-29T21:00:57.142Z,63.81
2022-09-29T21:01:57.245Z,61.71
2022-09-29T21:02:58.183Z,62.84
2022-09-29T21:03:57.113Z,65.10
2022-09-29T21:04:57.102Z,64.45
2022-09-29T21:05:57.090Z,54.79
2022-09-29T21:06:57.065Z,58.97
2022-09-29T21:07:57.065Z,58.81
2022-09-29T21:08:57.048Z,63.97
2022-09-29T21:09:57.046Z,65.58
2022-09-29T21:10:57.010Z,62.84
2022-09-29T21:11:57.028Z,57.85
2022-09-29T21:12:57.054Z,49.47
2022-09-29T21:13:56.996Z,57.20
2022-09-29T21:14:56.978Z,67.68
2022-09-29T21:15:57.020Z,67.35
2022-09-29T21:16:56.954Z,63.33
2022-09-29T21:17:57.542Z,60.10
2022-09-29T21:18:56.963Z,55.11
2022-09-29T21:19:56.931Z,56.07
2022-09-29T21:20:56.995Z,62.36
2022-09-29T21:21:56.891Z,56.72
2022-09-29T21:22:56.903Z,62.84
2022-09-29T21:23:56.942Z,57.04
2022-09-29T21:24:56.902Z,60.42
2022-09-29T21:25:56.911Z,56.40
2022-09-29T21:26:56.868Z,54.30
2022-09-29T21:27:56.823Z,58.81
2022-09-29T21:28:56.846Z,63.33
2022-09-29T21:29:56.857Z,58.01
2022-09-29T21:30:56.822Z,57.69
2022-09-29T21:31:56.822Z,54.62
2022-09-29T21:32:56.759Z,56.40
2022-09-29T21:33:56.811Z,59.62
2022-09-29T21:34:56.792Z,60.26
2022-09-29T21:35:56.739Z,58.33
2022-09-29T21:36:56.755Z,61.39
2022-09-29T21:37:56.705Z,56.40
2022-09-29T21:38:56.760Z,52.69
2022-09-29T21:39:56.748Z,49.47
2022-09-29T21:40:57.680Z,58.81
2022-09-29T21:41:56.691Z,56.40
2022-09-29T21:42:56.752Z,62.84
2022-09-29T21:43:56.665Z,57.69
2022-09-29T21:44:58.154Z,57.04
2022-09-29T21:45:57.607Z,60.75
2022-09-29T21:46:56.680Z,59.46
2022-09-29T21:47:56.616Z,53.50
2022-09-29T21:48:56.589Z,60.91
2022-09-29T21:49:56.641Z,56.24
2022-09-29T21:50:56.576Z,56.88
2022-09-29T21:52:01.218Z,63.81
2022-09-29T21:52:58.576Z,57.52
2022-09-29T21:53:56.516Z,55.91
2022-09-29T21:54:56.529Z,55.43
2022-09-29T21:55:56.596Z,51.88
2022-09-29T21:56:56.521Z,63.65
2022-09-29T21:57:56.529Z,54.95
2022-09-29T21:58:56.502Z,48.98
2022-09-29T21:59:56.592Z,54.62
2022-09-29T22:00:56.466Z,63.81
2022-09-29T22:01:56.541Z,50.43
2022-09-29T22:02:56.546Z,54.62
2022-09-29T22:03:56.437Z,56.40
2022-09-29T22:04:56.477Z,54.46
2022-09-29T22:05:56.445Z,49.15
2022-09-29T22:06:56.413Z,53.82
2022-09-29T22:07:56.414Z,49.95
2022-09-29T22:08:56.514Z,58.01
2022-09-29T22:09:56.423Z,59.30
2022-09-29T22:10:56.388Z,60.59
2022-09-29T22:11:56.333Z,64.45
2022-09-29T22:12:56.360Z,60.59
2022-09-29T22:13:56.378Z,57.36
2022-09-29T22:14:56.341Z,58.81
2022-09-29T22:15:56.363Z,57.69
2022-09-29T22:16:56.310Z,49.47
2022-09-29T22:17:56.290Z,60.59
2022-09-29T22:19:21.457Z,48.02
2022-09-29T22:19:58.277Z,54.14
2022-09-29T22:20:56.278Z,53.33
2022-09-29T22:21:56.236Z,59.62
2022-09-29T22:22:56.233Z,63.33
2022-09-29T22:23:56.201Z,60.59
2022-09-29T22:24:56.229Z,50.27
2022-09-29T22:25:56.518Z,52.37
2022-09-29T22:26:56.196Z,59.46
2022-09-29T22:27:57.222Z,50.11
2022-09-29T22:28:56.209Z,50.43
2022-09-29T22:29:56.218Z,60.59
2022-09-29T22:30:56.202Z,62.36
2022-09-29T22:31:56.221Z,55.11
2022-09-29T22:32:56.142Z,48.66
2022-09-29T22:33:56.162Z,63.65
2022-09-29T22:34:56.119Z,57.52
2022-09-29T22:35:56.086Z,53.17
2022-09-29T22:36:56.062Z,55.59
2022-09-29T22:37:56.079Z,54.14
2022-09-29T22:38:56.063Z,48.50
2022-09-29T22:39:56.086Z,49.31
2022-09-29T22:40:56.075Z,51.40
2022-09-29T22:41:56.027Z,56.40
2022-09-29T22:42:56.005Z,59.30
2022-09-29T22:43:56.036Z,54.95
2022-09-29T22:44:56.014Z,48.98